createdAt,value
2023-05-09T00:00:30.390Z,13.93
2023-05-09T00:02:58.739Z,13.90
2023-05-09T00:05:27.177Z,13.88
2023-05-09T00:07:56.779Z,13.91
2023-05-09T00:10:25.037Z,13.95
2023-05-09T00:12:53.262Z,13.89
2023-05-09T00:15:21.531Z,13.88
2023-05-09T00:17:50.637Z,13.77
2023-05-09T00:20:18.989Z,13.64
2023-05-09T00:22:47.120Z,13.75
2023-05-09T00:25:16.904Z,13.74
2023-05-09T00:27:45.469Z,13.67
2023-05-09T00:30:14.188Z,13.74
2023-05-09T00:32:42.653Z,13.62
2023-05-09T00:35:11.316Z,13.59
2023-05-09T00:37:39.620Z,13.56
2023-05-09T00:40:09.363Z,13.60
2023-05-09T00:42:39.084Z,13.62
2023-05-09T00:45:08.649Z,13.60
2023-05-09T00:47:36.936Z,13.65
2023-05-09T00:50:06.135Z,13.61
2023-05-09T00:52:34.900Z,13.58
2023-05-09T00:55:03.458Z,13.44
2023-05-09T00:57:31.708Z,13.47
2023-05-09T01:00:01.556Z,13.54
2023-05-09T01:02:30.103Z,13.54
2023-05-09T01:04:58.582Z,13.51
2023-05-09T01:07:47.190Z,13.49
2023-05-09T01:10:21.487Z,13.79
2023-05-09T01:12:55.115Z,13.62
2023-05-09T01:15:28.588Z,13.70
2023-05-09T01:18:00.579Z,13.88
2023-05-09T01:20:33.500Z,13.87
2023-05-09T01:23:13.743Z,13.98
2023-05-09T01:25:57.090Z,13.86
2023-05-09T01:28:36.858Z,13.70
2023-05-09T01:31:08.132Z,13.57
2023-05-09T01:33:40.426Z,13.56
2023-05-09T01:36:13.609Z,13.50
2023-05-09T01:38:46.135Z,13.46
2023-05-09T01:41:20.511Z,13.44
2023-05-09T01:43:50.613Z,13.54
2023-05-09T01:46:20.976Z,13.47
2023-05-09T01:48:50.170Z,13.42
2023-05-09T01:51:20.915Z,13.50
2023-05-09T01:53:49.756Z,13.59
2023-05-09T01:56:20.087Z,13.70
2023-05-09T01:58:50.183Z,13.61
2023-05-09T02:01:21.000Z,13.72
2023-05-09T02:03:52.676Z,14.04
2023-05-09T02:06:22.098Z,13.98
2023-05-09T02:08:51.104Z,13.54
2023-05-09T02:11:19.374Z,13.78
2023-05-09T02:13:47.665Z,13.85
2023-05-09T02:16:17.254Z,14.03
2023-05-09T02:18:47.192Z,13.97
2023-05-09T02:21:15.611Z,14.01
2023-05-09T02:23:43.971Z,14.09
2023-05-09T02:26:12.499Z,13.93
2023-05-09T02:28:41.336Z,14.22
2023-05-09T02:31:09.775Z,14.21
2023-05-09T02:33:39.420Z,14.38
2023-05-09T02:36:11.915Z,14.31
2023-05-09T02:38:41.708Z,14.19
2023-05-09T02:41:14.143Z,14.32
2023-05-09T02:43:42.880Z,14.31
2023-05-09T02:46:11.613Z,14.31
2023-05-09T02:48:39.871Z,14.35
2023-05-09T02:51:09.545Z,14.19
2023-05-09T02:53:37.716Z,14.11
2023-05-09T02:56:06.492Z,14.19
2023-05-09T02:58:34.764Z,13.93
2023-05-09T03:01:03.218Z,14.09
2023-05-09T03:03:34.150Z,13.98
2023-05-09T03:06:05.108Z,14.16
2023-05-09T03:08:34.697Z,13.93
2023-05-09T03:11:03.071Z,13.89
2023-05-09T03:13:31.987Z,13.72
2023-05-09T03:16:00.566Z,13.76
2023-05-09T03:18:28.873Z,13.36
2023-05-09T03:20:57.091Z,13.27
2023-05-09T03:23:25.556Z,13.05
2023-05-09T03:25:55.602Z,13.17
2023-05-09T03:28:23.969Z,13.19
2023-05-09T03:30:52.198Z,13.21
2023-05-09T03:33:23.817Z,13.17
2023-05-09T03:35:53.492Z,13.20
2023-05-09T03:38:24.353Z,13.21
2023-05-09T03:40:55.059Z,13.37
2023-05-09T03:43:25.641Z,13.49
2023-05-09T03:45:54.434Z,13.33
2023-05-09T03:48:22.632Z,13.44
2023-05-09T03:50:52.916Z,13.56
2023-05-09T03:53:21.804Z,13.71
2023-05-09T03:55:51.636Z,13.65
2023-05-09T03:58:20.670Z,13.70
2023-05-09T04:00:50.822Z,13.58
2023-05-09T04:03:23.381Z,13.37
2023-05-09T04:05:53.216Z,13.60
2023-05-09T04:08:37.942Z,13.75
2023-05-09T04:11:06.832Z,13.52
2023-05-09T04:13:36.372Z,13.68
2023-05-09T04:16:12.522Z,13.72
2023-05-09T04:18:42.342Z,14.01
2023-05-09T04:21:10.867Z,13.98
2023-05-09T04:23:40.797Z,14.11
2023-05-09T04:26:09.712Z,13.95
2023-05-09T04:28:39.058Z,14.14
2023-05-09T04:31:08.304Z,14.24
2023-05-09T04:33:39.484Z,14.13
2023-05-09T04:36:10.779Z,14.10
2023-05-09T04:38:39.199Z,14.24
2023-05-09T04:41:11.306Z,14.43
2023-05-09T04:43:39.447Z,14.52
2023-05-09T04:46:10.049Z,14.48
2023-05-09T04:48:40.025Z,14.38
2023-05-09T04:51:08.289Z,14.56
2023-05-09T04:53:36.607Z,14.68
2023-05-09T04:56:05.115Z,14.74
2023-05-09T04:58:34.552Z,14.59
2023-05-09T05:01:02.992Z,14.56
2023-05-09T05:03:31.691Z,14.59
2023-05-09T05:06:01.630Z,14.74
2023-05-09T05:08:29.908Z,14.91
2023-05-09T05:11:06.153Z,14.42
2023-05-09T05:13:35.928Z,14.69
2023-05-09T05:16:04.659Z,14.56
2023-05-09T05:18:33.014Z,14.69
2023-05-09T05:21:02.751Z,14.59
2023-05-09T05:23:31.081Z,14.58
2023-05-09T05:25:59.790Z,14.90
2023-05-09T05:28:30.670Z,14.77
2023-05-09T05:30:59.428Z,14.89
2023-05-09T05:33:27.854Z,14.71
2023-05-09T05:35:56.752Z,14.70
2023-05-09T05:38:26.430Z,15.13
2023-05-09T05:40:57.274Z,14.97
2023-05-09T05:43:27.318Z,14.77
2023-05-09T05:45:56.300Z,15.20
2023-05-09T05:48:26.760Z,15.08
2023-05-09T05:50:55.897Z,14.96
2023-05-09T05:53:32.070Z,15.21
2023-05-09T05:56:01.242Z,15.20
2023-05-09T05:58:30.287Z,15.15
2023-05-09T06:00:58.519Z,15.27
2023-05-09T06:03:26.990Z,15.01
2023-05-09T06:06:01.774Z,15.28
2023-05-09T06:08:32.024Z,15.55
2023-05-09T06:11:02.008Z,15.78
2023-05-09T06:13:30.384Z,16.07
2023-05-09T06:16:18.776Z,15.93
2023-05-09T06:18:51.162Z,15.69
2023-05-09T06:21:19.962Z,15.91
2023-05-09T06:24:04.338Z,15.78
2023-05-09T06:26:36.638Z,15.73
2023-05-09T06:29:06.385Z,16.06
2023-05-09T06:31:38.409Z,16.39
2023-05-09T06:34:06.915Z,16.42
2023-05-09T06:36:35.207Z,16.72
2023-05-09T06:39:04.864Z,16.68
2023-05-09T06:41:33.093Z,16.96
2023-05-09T06:44:02.604Z,17.24
2023-05-09T06:46:30.814Z,16.99
2023-05-09T06:49:01.767Z,17.58
2023-05-09T06:51:30.078Z,17.54
2023-05-09T06:53:58.380Z,17.41
2023-05-09T06:56:28.262Z,17.53
2023-05-09T06:58:56.471Z,17.73
2023-05-09T07:01:24.831Z,17.66
2023-05-09T07:03:53.011Z,17.29
2023-05-09T07:06:21.464Z,17.15
2023-05-09T07:08:49.643Z,17.19
2023-05-09T07:11:17.929Z,17.23
2023-05-09T07:13:47.563Z,17.31
2023-05-09T07:16:16.022Z,17.62
2023-05-09T07:18:45.184Z,17.68
2023-05-09T07:21:13.928Z,18.10
2023-05-09T07:23:42.271Z,17.86
2023-05-09T07:26:10.454Z,18.23
2023-05-09T07:28:39.072Z,18.86
2023-05-09T07:31:09.474Z,18.74
2023-05-09T07:33:37.843Z,19.02
2023-05-09T07:36:06.649Z,18.83
2023-05-09T07:38:34.867Z,18.89
2023-05-09T07:41:03.280Z,19.76
2023-05-09T07:43:32.050Z,20.05
2023-05-09T07:46:02.600Z,19.77
2023-05-09T07:48:32.452Z,19.09
2023-05-09T07:51:01.115Z,19.38
2023-05-09T07:53:29.530Z,19.50
2023-05-09T07:55:59.157Z,19.56
2023-05-09T07:58:27.396Z,19.94
2023-05-09T08:00:57.414Z,19.97
2023-05-09T08:03:25.975Z,18.81
2023-05-09T08:05:56.454Z,19.53
2023-05-09T08:08:24.843Z,18.97
2023-05-09T08:10:53.033Z,19.91
2023-05-09T08:13:22.351Z,19.93
2023-05-09T08:15:50.849Z,19.84
2023-05-09T08:18:19.048Z,20.39
2023-05-09T08:20:47.193Z,20.83
2023-05-09T08:23:16.750Z,21.51
2023-05-09T08:25:44.860Z,21.03
2023-05-09T08:28:13.023Z,21.56
2023-05-09T08:30:41.278Z,20.97
2023-05-09T08:33:09.436Z,21.54
2023-05-09T08:35:37.678Z,21.58
2023-05-09T08:38:05.825Z,21.52
2023-05-09T08:40:38.783Z,21.50
2023-05-09T08:43:08.535Z,21.80
2023-05-09T08:48:10.073Z,22.31
2023-05-09T08:50:38.646Z,22.16
2023-05-09T08:53:07.825Z,22.07
2023-05-09T08:55:38.126Z,21.53
2023-05-09T08:58:07.086Z,21.08
2023-05-09T09:00:35.399Z,20.43
2023-05-09T09:03:04.568Z,20.94
2023-05-09T09:05:41.359Z,21.50
2023-05-09T09:08:11.117Z,21.20
2023-05-09T09:10:43.531Z,21.41
2023-05-09T09:13:12.801Z,21.36
2023-05-09T09:15:42.713Z,20.84
2023-05-09T09:18:13.815Z,21.14
2023-05-09T09:20:45.305Z,20.99
2023-05-09T09:23:13.967Z,20.50
2023-05-09T09:25:47.123Z,20.41
2023-05-09T09:28:15.489Z,20.60
2023-05-09T09:30:48.565Z,20.93
2023-05-09T09:33:23.413Z,21.13
2023-05-09T09:35:52.495Z,21.09
2023-05-09T09:38:21.290Z,21.19
2023-05-09T09:40:57.650Z,21.49
2023-05-09T09:43:29.364Z,20.55
2023-05-09T09:45:58.559Z,20.93
2023-05-09T09:48:27.093Z,20.96
2023-05-09T09:50:57.860Z,21.67
2023-05-09T09:53:30.325Z,21.04
2023-05-09T09:56:00.124Z,20.74
2023-05-09T09:58:28.346Z,20.61
2023-05-09T10:01:07.510Z,21.02
2023-05-09T10:03:39.935Z,21.45
2023-05-09T10:06:12.286Z,21.13
2023-05-09T10:08:40.552Z,21.50
2023-05-09T10:11:10.750Z,21.25
2023-05-09T10:13:39.424Z,21.79
2023-05-09T10:16:10.162Z,21.53
2023-05-09T10:18:39.400Z,21.73
2023-05-09T10:21:09.586Z,22.38
2023-05-09T10:23:39.322Z,22.78
2023-05-09T10:26:18.872Z,21.94
2023-05-09T10:28:47.914Z,21.88
2023-05-09T10:31:19.694Z,22.06
2023-05-09T10:33:48.950Z,21.64
2023-05-09T10:36:20.489Z,21.61
2023-05-09T10:38:49.389Z,22.28
2023-05-09T10:41:19.802Z,22.63
2023-05-09T10:43:48.537Z,22.05
2023-05-09T10:46:17.441Z,22.51
2023-05-09T10:48:46.198Z,22.29
2023-05-09T10:51:14.486Z,21.39
2023-05-09T10:53:44.387Z,21.56
2023-05-09T10:56:27.096Z,21.48
2023-05-09T10:58:55.780Z,21.67
2023-05-09T11:01:32.880Z,21.91
2023-05-09T11:04:02.055Z,22.19
2023-05-09T11:06:57.848Z,22.39
2023-05-09T11:09:34.074Z,22.63
2023-05-09T11:12:11.821Z,21.91
2023-05-09T11:14:42.396Z,22.06
2023-05-09T11:17:12.641Z,22.45
2023-05-09T11:20:01.052Z,23.19
2023-05-09T11:22:30.833Z,22.46
2023-05-09T11:25:05.760Z,22.47
2023-05-09T11:27:42.502Z,22.68
2023-05-09T11:30:14.326Z,22.52
2023-05-09T11:32:44.942Z,22.68
2023-05-09T11:35:15.546Z,23.01
2023-05-09T11:37:48.510Z,23.14
2023-05-09T11:40:18.406Z,22.86
2023-05-09T11:42:50.004Z,22.42
2023-05-09T11:45:18.794Z,22.85
2023-05-09T11:47:47.958Z,23.31
2023-05-09T11:50:17.753Z,22.92
2023-05-09T11:52:46.377Z,22.85
2023-05-09T11:55:16.725Z,23.95
2023-05-09T11:57:48.922Z,23.90
2023-05-09T12:00:18.187Z,24.37
2023-05-09T12:02:47.219Z,25.30
2023-05-09T12:05:17.552Z,25.53
2023-05-09T12:07:46.281Z,24.51
2023-05-09T12:10:15.921Z,23.85
2023-05-09T12:12:45.738Z,24.54
2023-05-09T12:15:16.125Z,24.16
2023-05-09T12:17:46.883Z,24.54
2023-05-09T12:20:15.925Z,24.61
2023-05-09T12:22:45.021Z,24.35
2023-05-09T12:25:13.960Z,24.66
2023-05-09T12:27:43.112Z,24.94
2023-05-09T12:30:14.219Z,25.11
2023-05-09T12:32:44.142Z,25.70
2023-05-09T12:35:12.525Z,25.15
2023-05-09T12:37:40.692Z,25.03
2023-05-09T12:40:13.117Z,24.68
2023-05-09T12:42:46.125Z,24.66
2023-05-09T12:45:15.790Z,24.41
2023-05-09T12:47:45.766Z,24.66
2023-05-09T12:50:14.050Z,24.23
2023-05-09T12:53:01.352Z,24.12
2023-05-09T12:55:31.907Z,24.88
2023-05-09T12:58:02.305Z,24.62
2023-05-09T13:00:43.173Z,24.47
2023-05-09T13:03:25.255Z,24.90
2023-05-09T13:05:58.102Z,26.45
2023-05-09T13:08:26.739Z,26.61
2023-05-09T13:11:03.927Z,26.19
2023-05-09T13:13:43.295Z,26.10
2023-05-09T13:16:13.480Z,25.90
2023-05-09T13:18:45.677Z,26.00
2023-05-09T13:21:14.049Z,25.36
2023-05-09T13:23:44.590Z,25.08
2023-05-09T13:26:12.848Z,24.63
2023-05-09T13:28:41.169Z,24.21
2023-05-09T13:31:09.609Z,24.47
2023-05-09T13:33:37.842Z,24.80
2023-05-09T13:36:08.188Z,24.77
2023-05-09T13:38:38.863Z,24.71
2023-05-09T13:41:07.462Z,24.94
2023-05-09T13:43:35.750Z,24.59
2023-05-09T13:46:04.399Z,23.77
2023-05-09T13:48:32.630Z,23.73
2023-05-09T13:51:01.512Z,24.28
2023-05-09T13:53:31.444Z,24.49
2023-05-09T13:55:59.770Z,23.69
2023-05-09T13:58:28.010Z,24.02
2023-05-09T14:00:56.224Z,23.72
2023-05-09T14:03:24.681Z,23.76
2023-05-09T14:05:53.491Z,23.50
2023-05-09T14:08:22.732Z,23.54
2023-05-09T14:10:52.739Z,23.52
2023-05-09T14:13:23.562Z,23.20
2023-05-09T14:16:02.271Z,23.15
2023-05-09T14:18:31.074Z,22.85
2023-05-09T14:21:00.352Z,23.44
2023-05-09T14:23:31.591Z,23.38
2023-05-09T14:26:01.593Z,23.60
2023-05-09T14:28:29.917Z,23.83
2023-05-09T14:30:58.849Z,23.56
2023-05-09T14:33:29.189Z,24.13
2023-05-09T14:36:02.951Z,24.73
2023-05-09T14:38:37.742Z,24.38
2023-05-09T14:41:09.252Z,24.49
2023-05-09T14:43:37.618Z,24.84
2023-05-09T14:46:06.776Z,25.40
2023-05-09T14:48:34.974Z,25.12
2023-05-09T14:51:03.316Z,24.76
2023-05-09T14:53:31.714Z,24.74
2023-05-09T14:56:00.304Z,24.21
2023-05-09T14:58:30.994Z,23.88
2023-05-09T15:00:59.336Z,23.54
2023-05-09T15:03:27.693Z,23.32
2023-05-09T15:05:55.982Z,23.04
2023-05-09T15:08:24.191Z,22.76
2023-05-09T15:10:52.434Z,22.41
2023-05-09T15:13:21.022Z,22.08
2023-05-09T15:15:51.102Z,21.70
2023-05-09T15:18:20.171Z,21.49
2023-05-09T15:20:52.065Z,21.27
2023-05-09T15:23:20.730Z,21.13
2023-05-09T15:25:49.333Z,21.13
2023-05-09T15:28:17.569Z,21.14
2023-05-09T15:30:45.890Z,21.12
2023-05-09T15:33:15.768Z,20.68
2023-05-09T15:35:45.183Z,20.45
2023-05-09T15:38:14.379Z,20.75
2023-05-09T15:40:44.377Z,20.95
2023-05-09T15:43:13.021Z,21.08
2023-05-09T15:45:45.715Z,21.33
2023-05-09T15:48:16.357Z,21.20
2023-05-09T15:50:45.763Z,21.20
2023-05-09T15:53:15.635Z,21.13
2023-05-09T15:55:44.147Z,21.02
2023-05-09T15:58:16.399Z,20.73
2023-05-09T16:00:45.463Z,21.00
2023-05-09T16:03:15.359Z,20.80
2023-05-09T16:05:43.897Z,21.04
2023-05-09T16:08:12.942Z,21.11
2023-05-09T16:10:41.696Z,20.93
2023-05-09T16:13:10.392Z,20.81
2023-05-09T16:15:38.673Z,20.95
2023-05-09T16:18:07.758Z,20.72
2023-05-09T16:20:37.546Z,20.73
2023-05-09T16:23:05.704Z,20.65
2023-05-09T16:25:35.393Z,20.75
2023-05-09T16:28:03.901Z,20.54
2023-05-09T16:30:32.313Z,20.29
2023-05-09T16:33:02.730Z,20.83
2023-05-09T16:35:31.028Z,21.04
2023-05-09T16:38:03.305Z,20.98
2023-05-09T16:40:32.253Z,20.86
2023-05-09T16:43:01.749Z,20.71
2023-05-09T16:45:30.405Z,20.73
2023-05-09T16:48:02.599Z,20.84
2023-05-09T16:51:00.129Z,21.00
2023-05-09T16:53:37.379Z,20.93
2023-05-09T16:56:22.138Z,20.94
2023-05-09T16:58:58.016Z,20.92
2023-05-09T17:01:30.277Z,20.82
2023-05-09T17:04:01.813Z,20.80
2023-05-09T17:06:31.151Z,20.47
2023-05-09T17:09:01.961Z,20.29
2023-05-09T17:11:32.551Z,20.26
2023-05-09T17:14:03.571Z,20.20
2023-05-09T17:16:32.838Z,20.38
2023-05-09T17:19:05.250Z,20.20
2023-05-09T17:21:35.879Z,19.86
2023-05-09T17:24:09.312Z,19.87
2023-05-09T17:26:39.289Z,19.81
2023-05-09T17:29:08.296Z,19.61
2023-05-09T17:31:37.631Z,19.42
2023-05-09T17:34:09.275Z,19.14
2023-05-09T17:36:39.101Z,19.43
2023-05-09T17:42:20.181Z,19.37
2023-05-09T17:45:21.493Z,19.34
2023-05-09T17:48:21.607Z,19.38
2023-05-09T17:50:52.291Z,19.21
2023-05-09T17:53:28.704Z,19.22
2023-05-09T17:56:01.672Z,19.22
2023-05-09T17:58:30.932Z,19.05
2023-05-09T18:01:01.659Z,19.10
2023-05-09T18:03:46.450Z,19.05
2023-05-09T18:06:18.924Z,18.97
2023-05-09T18:08:50.053Z,18.89
2023-05-09T18:11:31.407Z,18.79
2023-05-09T18:14:18.003Z,18.85
2023-05-09T18:17:26.990Z,18.77
2023-05-09T18:19:59.127Z,18.68
2023-05-09T18:22:31.505Z,18.58
2023-05-09T18:25:04.099Z,18.57
2023-05-09T18:27:38.613Z,18.50
2023-05-09T18:30:17.423Z,18.36
2023-05-09T18:33:02.504Z,18.23
2023-05-09T18:35:38.842Z,18.18
2023-05-09T18:38:10.566Z,17.96
2023-05-09T18:40:46.363Z,17.86
2023-05-09T18:43:22.079Z,17.77
2023-05-09T18:45:57.200Z,17.61
2023-05-09T18:48:27.884Z,17.56
2023-05-09T18:50:57.659Z,17.55
2023-05-09T18:53:27.374Z,17.48
2023-05-09T18:55:57.489Z,17.38
2023-05-09T18:58:29.037Z,17.27
2023-05-09T19:00:59.951Z,17.43
2023-05-09T19:03:32.077Z,17.53
2023-05-09T19:06:01.505Z,17.27
2023-05-09T19:08:33.477Z,17.13
2023-05-09T19:11:02.736Z,16.94
2023-05-09T19:13:41.133Z,16.89
2023-05-09T19:16:10.730Z,16.76
2023-05-09T19:18:39.976Z,16.56
2023-05-09T19:21:09.478Z,16.56
2023-05-09T19:23:39.561Z,16.48
2023-05-09T19:26:09.825Z,16.40
2023-05-09T19:28:42.175Z,16.26
2023-05-09T19:31:12.258Z,16.20
2023-05-09T19:33:42.301Z,16.14
2023-05-09T19:36:13.990Z,16.04
2023-05-09T19:38:46.436Z,15.98
2023-05-09T19:41:18.495Z,15.88
2023-05-09T19:43:51.917Z,15.81
2023-05-09T19:46:23.303Z,15.74
2023-05-09T19:48:54.130Z,15.78
2023-05-09T19:51:24.016Z,15.79
2023-05-09T19:53:53.220Z,15.80
2023-05-09T19:56:23.863Z,15.78
2023-05-09T19:58:55.505Z,15.65
2023-05-09T20:01:25.802Z,15.70
2023-05-09T20:03:57.393Z,15.83
2023-05-09T20:06:27.604Z,15.89
2023-05-09T20:08:56.924Z,15.77
2023-05-09T20:11:26.360Z,15.75
2023-05-09T20:13:57.001Z,15.85
2023-05-09T20:16:27.239Z,15.89
2023-05-09T20:18:59.682Z,15.79
2023-05-09T20:21:30.076Z,15.78
2023-05-09T20:24:01.201Z,15.69
2023-05-09T20:26:31.397Z,15.64
2023-05-09T20:29:08.206Z,15.59
2023-05-09T20:31:37.611Z,15.53
2023-05-09T20:34:11.206Z,15.33
2023-05-09T20:36:40.468Z,15.21
2023-05-09T20:39:11.610Z,15.42
2023-05-09T20:41:43.561Z,15.48
2023-05-09T20:44:19.222Z,15.49
2023-05-09T20:46:49.951Z,15.46
2023-05-09T20:49:19.835Z,15.33
2023-05-09T20:51:52.112Z,15.11
2023-05-09T20:54:21.020Z,14.99
2023-05-09T20:56:50.311Z,15.16
2023-05-09T20:59:22.688Z,15.37
2023-05-09T21:01:52.299Z,15.62
2023-05-09T21:04:21.320Z,15.21
2023-05-09T21:06:51.061Z,15.70
2023-05-09T21:09:22.023Z,15.38
2023-05-09T21:11:54.050Z,15.33
2023-05-09T21:14:24.661Z,14.98
2023-05-09T21:16:57.535Z,14.99
2023-05-09T21:19:27.271Z,14.90
2023-05-09T21:21:56.184Z,14.82
2023-05-09T21:24:26.637Z,14.72
2023-05-09T21:27:04.992Z,14.76
2023-05-09T21:29:44.626Z,14.75
2023-05-09T21:32:17.075Z,14.91
2023-05-09T21:34:54.996Z,14.82
2023-05-09T21:37:28.755Z,14.56
2023-05-09T21:40:04.164Z,14.64
2023-05-09T21:42:37.550Z,14.63
2023-05-09T21:45:16.601Z,14.30
2023-05-09T21:47:45.270Z,14.33
2023-05-09T21:50:23.441Z,14.45
2023-05-09T21:53:01.226Z,14.59
2023-05-09T21:55:58.750Z,14.75
2023-05-09T22:02:14.802Z,14.37
2023-05-09T22:04:45.276Z,14.42
2023-05-09T22:07:14.035Z,14.59
2023-05-09T22:09:42.764Z,14.54
2023-05-09T22:12:11.080Z,14.57
2023-05-09T22:14:52.754Z,14.65
2023-05-09T22:17:27.235Z,14.42
2023-05-09T22:19:58.040Z,14.38
2023-05-09T22:22:28.316Z,14.38
2023-05-09T22:24:59.133Z,14.47
2023-05-09T22:27:57.950Z,14.21
2023-05-09T22:30:37.354Z,14.55
2023-05-09T22:33:10.165Z,14.55
2023-05-09T22:35:46.118Z,14.14
2023-05-09T22:38:21.849Z,14.80
2023-05-09T22:40:50.524Z,14.46
2023-05-09T22:43:20.249Z,14.67
2023-05-09T22:45:48.865Z,14.75
2023-05-09T22:48:20.843Z,14.75
2023-05-09T22:50:51.427Z,14.39
2023-05-09T22:53:27.490Z,14.19
2023-05-09T22:55:59.987Z,13.98
2023-05-09T22:58:33.495Z,13.83
2023-05-09T23:01:02.784Z,13.73
2023-05-09T23:03:32.899Z,13.73
2023-05-09T23:08:55.394Z,14.27
2023-05-09T23:11:24.539Z,14.27
2023-05-09T23:14:02.111Z,14.11
2023-05-09T23:17:25.837Z,13.75
2023-05-09T23:20:09.375Z,13.70
2023-05-09T23:22:41.032Z,13.90
2023-05-09T23:25:34.260Z,13.89
2023-05-09T23:28:09.082Z,14.06
2023-05-09T23:30:42.525Z,13.70
2023-05-09T23:33:16.505Z,13.69
2023-05-09T23:36:03.761Z,13.82
2023-05-09T23:38:35.647Z,13.63
2023-05-09T23:41:05.495Z,13.52
2023-05-09T23:43:36.105Z,13.37
2023-05-09T23:46:05.316Z,13.33
2023-05-09T23:48:38.649Z,13.20
2023-05-09T23:51:13.452Z,13.13
2023-05-09T23:53:49.248Z,12.93
2023-05-09T23:56:44.812Z,12.87
2023-05-09T23:59:13.013Z,12.84
